West Wickham, United Kingdom
Current Conditions -  °F | °C
As of 5:50 PM on Tuesday 21 Oct 2014 (Local Time) from EGKB Reporting Station
Rain Showers Rain Showers  
Wind Chill: 44°   Ceiling: Unl
Heat Index: 48°   Visibility: 6mi
Dew Point: 39°   Wind: 10mph
Humidity: 71%   Direction: 320°NW
Pressure: 29.88"   Gusts: NA
Location:  51.37°N, 0.02°W
Report Text: EGKB 211650Z 32009KT 280V340 9999 VCSH SCT030 09/04 Q1012 RESHRA
Loading
Personal Weather Stations






























Interactive Weather Map
Tropical Storm Tracking
New forecast layout! Learn more

10-Day Weather Forecast

Advertisements
Track Severe Weather on mobile